createdAt,value
2019-01-16T00:02:14.321Z,3.90
2019-01-16T00:05:03.077Z,3.77
2019-01-16T00:07:54.774Z,3.20
2019-01-16T00:10:58.328Z,3.20
2019-01-16T00:14:02.442Z,4.00
2019-01-16T00:16:51.067Z,4.30
2019-01-16T00:19:40.276Z,4.13
2019-01-16T00:22:39.304Z,4.20
2019-01-16T00:25:28.316Z,3.77
2019-01-16T00:28:33.467Z,3.47
2019-01-16T00:31:40.348Z,3.60
2019-01-16T00:34:43.565Z,5.07
2019-01-16T00:37:47.373Z,3.17
2019-01-16T00:40:47.918Z,6.80
2019-01-16T00:43:36.617Z,4.37
2019-01-16T00:46:25.495Z,2.73
2019-01-16T00:49:20.664Z,5.63
2019-01-16T00:52:15.497Z,3.47
2019-01-16T00:55:15.730Z,3.17
2019-01-16T00:58:05.129Z,3.13
2019-01-16T01:00:54.052Z,3.20
2019-01-16T01:03:42.745Z,2.90
2019-01-16T01:06:31.401Z,2.93
2019-01-16T01:09:35.119Z,3.23
2019-01-16T01:12:32.651Z,3.07
2019-01-16T01:15:21.796Z,4.00
2019-01-16T01:18:22.681Z,2.73
2019-01-16T01:21:11.593Z,4.40
2019-01-16T01:24:03.186Z,3.53
2019-01-16T01:27:00.644Z,2.80
2019-01-16T01:29:49.559Z,3.20
2019-01-16T01:32:54.645Z,2.53
2019-01-16T01:35:48.860Z,3.77
2019-01-16T01:38:52.540Z,2.90
2019-01-16T01:41:57.233Z,2.90
2019-01-16T01:44:48.682Z,2.93
2019-01-16T01:47:42.695Z,3.67
2019-01-16T01:50:31.213Z,3.00
2019-01-16T01:53:25.905Z,4.07
2019-01-16T01:56:26.483Z,3.30
2019-01-16T01:59:30.315Z,3.17
2019-01-16T02:02:19.180Z,2.30
2019-01-16T02:05:25.170Z,3.60
2019-01-16T02:08:22.689Z,2.20
2019-01-16T02:11:11.288Z,2.17
2019-01-16T02:14:09.157Z,3.00
2019-01-16T02:17:04.003Z,2.53
2019-01-16T02:19:58.888Z,2.37
2019-01-16T02:22:47.408Z,3.37
2019-01-16T02:25:38.929Z,1.90
2019-01-16T02:28:30.435Z,1.93
2019-01-16T02:31:30.800Z,3.17
2019-01-16T02:34:19.862Z,2.70
2019-01-16T02:37:08.595Z,3.07
2019-01-16T02:39:57.549Z,3.70
2019-01-16T02:42:46.077Z,2.17
2019-01-16T02:45:50.166Z,2.20
2019-01-16T02:48:40.124Z,1.97
2019-01-16T02:51:37.129Z,1.83
2019-01-16T02:54:26.270Z,2.60
2019-01-16T02:57:20.654Z,2.50
2019-01-16T03:00:15.590Z,1.77
2019-01-16T03:03:12.989Z,2.03
2019-01-16T03:06:13.159Z,2.00
2019-01-16T03:09:18.604Z,1.77
2019-01-16T03:12:19.266Z,2.03
2019-01-16T03:15:21.805Z,1.70
2019-01-16T03:18:19.022Z,1.90
2019-01-16T03:21:13.798Z,2.60
2019-01-16T03:24:08.271Z,1.93
2019-01-16T03:27:03.105Z,2.10
2019-01-16T03:29:55.019Z,2.30
2019-01-16T03:32:59.467Z,2.40
2019-01-16T03:35:57.166Z,2.10
2019-01-16T03:38:48.274Z,2.13
2019-01-16T03:41:37.582Z,2.53
2019-01-16T03:44:29.201Z,2.60
2019-01-16T03:47:34.735Z,2.63
2019-01-16T03:50:23.487Z,2.30
2019-01-16T03:53:18.352Z,2.97
2019-01-16T03:56:19.280Z,2.83
2019-01-16T03:59:13.728Z,2.27
2019-01-16T04:02:10.904Z,2.20
2019-01-16T04:05:14.775Z,2.60
2019-01-16T04:08:03.273Z,2.40
2019-01-16T04:10:51.992Z,2.57
2019-01-16T04:13:55.650Z,2.50
2019-01-16T04:17:02.501Z,2.70
2019-01-16T04:20:00.269Z,3.07
2019-01-16T04:22:52.351Z,3.83
2019-01-16T04:25:46.643Z,3.03
2019-01-16T04:28:44.590Z,3.13
2019-01-16T04:31:49.117Z,3.00
2019-01-16T04:34:53.853Z,3.50
2019-01-16T04:37:58.446Z,3.60
2019-01-16T04:40:47.080Z,3.30
2019-01-16T04:43:47.713Z,3.50
2019-01-16T04:46:42.030Z,4.40
2019-01-16T04:49:30.819Z,3.30
2019-01-16T04:52:22.018Z,3.90
2019-01-16T04:55:28.461Z,3.60
2019-01-16T04:58:32.577Z,4.00
2019-01-16T05:01:24.106Z,3.97
2019-01-16T05:04:13.088Z,3.50
2019-01-16T05:07:16.781Z,4.60
2019-01-16T05:10:14.345Z,5.10
2019-01-16T05:13:19.436Z,4.47
2019-01-16T05:16:14.345Z,4.67
2019-01-16T05:19:20.648Z,4.33
2019-01-16T05:22:12.200Z,4.00
2019-01-16T05:25:18.554Z,4.23
2019-01-16T05:28:19.233Z,4.47
2019-01-16T05:31:16.775Z,4.20
2019-01-16T05:34:05.637Z,4.50
2019-01-16T05:37:03.509Z,4.70
2019-01-16T05:40:08.372Z,4.73
2019-01-16T05:43:13.221Z,4.40
2019-01-16T05:46:02.149Z,4.37
2019-01-16T05:48:53.599Z,4.83
2019-01-16T05:51:42.504Z,5.67
2019-01-16T05:54:31.098Z,4.73
2019-01-16T05:57:19.846Z,4.50
2019-01-16T06:00:11.727Z,4.50
2019-01-16T06:03:08.962Z,4.57
2019-01-16T06:06:00.369Z,5.60
2019-01-16T06:08:54.826Z,4.77
2019-01-16T06:11:49.108Z,5.20
2019-01-16T06:14:38.822Z,4.40
2019-01-16T06:17:27.696Z,5.00
2019-01-16T06:20:32.584Z,4.77
2019-01-16T06:23:27.317Z,5.23
2019-01-16T06:26:28.075Z,5.33
2019-01-16T06:29:26.183Z,5.47
2019-01-16T06:32:15.420Z,5.87
2019-01-16T06:35:19.243Z,5.63
2019-01-16T06:38:10.706Z,5.80
2019-01-16T06:40:59.650Z,5.30
2019-01-16T06:43:53.653Z,4.90
2019-01-16T06:46:42.242Z,4.93
2019-01-16T06:49:43.161Z,5.23
2019-01-16T06:52:34.624Z,5.40
2019-01-16T06:55:23.389Z,5.00
2019-01-16T06:58:27.388Z,5.73
2019-01-16T07:01:21.549Z,5.40
2019-01-16T07:04:16.497Z,5.10
2019-01-16T07:07:11.204Z,5.40
2019-01-16T07:10:14.860Z,5.37
2019-01-16T07:13:19.127Z,5.50
2019-01-16T07:16:17.221Z,6.33
2019-01-16T07:19:09.077Z,5.53
2019-01-16T07:22:09.739Z,6.43
2019-01-16T07:24:58.439Z,6.23
2019-01-16T07:28:05.374Z,5.37
2019-01-16T07:31:03.335Z,6.60
2019-01-16T07:33:52.124Z,5.97
2019-01-16T07:36:43.489Z,7.70
2019-01-16T07:39:31.982Z,6.47
2019-01-16T07:42:32.443Z,5.50
2019-01-16T07:45:33.650Z,8.33
2019-01-16T07:48:28.334Z,6.77
2019-01-16T07:51:26.062Z,6.90
2019-01-16T07:54:30.209Z,6.90
2019-01-16T07:57:21.764Z,5.80
2019-01-16T08:00:13.966Z,6.93
2019-01-16T08:03:14.537Z,5.67
2019-01-16T08:06:05.866Z,7.83
2019-01-16T08:09:09.573Z,7.03
2019-01-16T08:11:58.261Z,4.97
2019-01-16T08:15:02.788Z,7.60
2019-01-16T08:18:03.692Z,6.23
2019-01-16T08:21:08.792Z,5.80
2019-01-16T08:23:57.538Z,5.70
2019-01-16T08:27:04.420Z,12.13
2019-01-16T08:30:04.904Z,9.00
2019-01-16T08:33:05.140Z,6.60
2019-01-16T08:36:03.112Z,8.13
2019-01-16T08:39:00.381Z,7.73
2019-01-16T08:41:55.240Z,7.47
2019-01-16T08:44:58.923Z,8.17
2019-01-16T08:47:59.488Z,9.57
2019-01-16T08:51:04.537Z,6.73
2019-01-16T08:53:56.209Z,8.93
2019-01-16T08:56:44.996Z,6.50
2019-01-16T08:59:49.769Z,9.20
2019-01-16T09:02:53.514Z,7.00
2019-01-16T09:05:42.196Z,8.60
2019-01-16T09:08:47.238Z,7.47
2019-01-16T09:11:45.121Z,8.83
2019-01-16T09:14:37.086Z,8.57
2019-01-16T09:17:26.111Z,9.07
2019-01-16T09:20:18.129Z,9.70
2019-01-16T09:23:15.623Z,7.27
2019-01-16T09:26:20.931Z,8.83
2019-01-16T09:29:15.327Z,8.53
2019-01-16T09:32:13.034Z,6.47
2019-01-16T09:35:04.740Z,6.83
2019-01-16T09:38:11.331Z,6.17
2019-01-16T09:41:00.247Z,9.77
2019-01-16T09:44:03.791Z,8.90
2019-01-16T09:46:54.845Z,8.60
2019-01-16T09:49:55.702Z,7.10
2019-01-16T09:52:53.293Z,5.87
2019-01-16T09:55:45.323Z,6.13
2019-01-16T09:58:33.940Z,8.20
2019-01-16T10:01:28.276Z,6.37
2019-01-16T10:04:26.027Z,6.60
2019-01-16T10:07:30.061Z,6.70
2019-01-16T10:10:21.266Z,7.77
2019-01-16T10:13:15.166Z,6.43
2019-01-16T10:16:06.544Z,6.60
2019-01-16T10:18:58.400Z,10.40
2019-01-16T10:21:53.174Z,6.33
2019-01-16T10:24:42.359Z,7.57
2019-01-16T10:27:31.364Z,7.97
2019-01-16T10:30:38.148Z,5.63
2019-01-16T10:33:26.907Z,6.63
2019-01-16T10:36:18.756Z,7.80
2019-01-16T10:39:09.329Z,6.70
2019-01-16T10:41:58.014Z,7.67
2019-01-16T10:44:52.592Z,5.57
2019-01-16T10:47:41.231Z,6.43
2019-01-16T10:50:32.436Z,10.67
2019-01-16T10:53:24.079Z,6.07
2019-01-16T10:56:12.908Z,5.43
2019-01-16T10:59:01.989Z,6.90
2019-01-16T11:01:50.831Z,8.00
2019-01-16T11:04:51.725Z,6.70
2019-01-16T11:07:40.633Z,6.47
2019-01-16T11:10:35.131Z,8.30
2019-01-16T11:13:26.698Z,6.27
2019-01-16T11:16:20.850Z,8.63
2019-01-16T11:19:22.009Z,6.93
2019-01-16T11:22:16.549Z,6.47
2019-01-16T11:25:22.218Z,9.10
2019-01-16T11:28:11.436Z,6.63
2019-01-16T11:31:08.916Z,6.90
2019-01-16T11:33:57.486Z,8.10
2019-01-16T11:36:58.141Z,8.43
2019-01-16T11:39:49.116Z,8.00
2019-01-16T11:42:40.638Z,9.70
2019-01-16T11:45:41.090Z,6.40
2019-01-16T11:48:42.210Z,7.63
2019-01-16T11:51:45.877Z,8.17
2019-01-16T11:54:34.556Z,8.47
2019-01-16T11:57:34.773Z,8.67
2019-01-16T12:00:32.594Z,7.10
2019-01-16T12:03:21.470Z,7.07
2019-01-16T12:06:24.839Z,6.80
2019-01-16T12:09:31.643Z,8.30
2019-01-16T12:12:35.040Z,7.30
2019-01-16T12:15:35.860Z,7.43
2019-01-16T12:18:36.513Z,8.13
2019-01-16T12:21:26.610Z,8.50
2019-01-16T12:24:33.426Z,7.03
2019-01-16T12:27:22.124Z,6.87
2019-01-16T12:30:26.284Z,6.97
2019-01-16T12:33:17.736Z,8.87
2019-01-16T12:36:19.018Z,10.23
2019-01-16T12:39:26.122Z,5.80
2019-01-16T12:42:20.718Z,7.00
2019-01-16T12:45:12.522Z,9.73
2019-01-16T12:48:10.246Z,7.47
2019-01-16T12:51:02.017Z,6.97
2019-01-16T12:53:59.994Z,12.03
2019-01-16T12:56:51.594Z,8.63
2019-01-16T12:59:40.727Z,8.23
2019-01-16T13:02:32.462Z,9.50
2019-01-16T13:05:33.375Z,8.70
2019-01-16T13:08:36.690Z,9.97
2019-01-16T13:11:25.928Z,7.67
2019-01-16T13:14:15.102Z,10.63
2019-01-16T13:17:06.758Z,7.50
2019-01-16T13:19:55.613Z,7.43
2019-01-16T13:22:46.235Z,8.70
2019-01-16T13:25:46.574Z,9.83
2019-01-16T13:28:40.885Z,7.30
2019-01-16T13:31:29.533Z,7.70
2019-01-16T13:34:20.999Z,10.40
2019-01-16T13:37:09.868Z,8.77
2019-01-16T13:39:58.856Z,11.27
2019-01-16T13:43:03.693Z,8.20
2019-01-16T13:46:04.314Z,8.53
2019-01-16T13:49:10.977Z,7.20
2019-01-16T13:52:00.440Z,6.90
2019-01-16T13:55:05.090Z,8.53
2019-01-16T13:58:05.873Z,9.40
2019-01-16T14:00:57.143Z,7.83
2019-01-16T14:03:55.002Z,7.93
2019-01-16T14:06:50.010Z,7.73
2019-01-16T14:09:38.675Z,8.33
2019-01-16T14:12:27.567Z,7.97
2019-01-16T14:15:26.162Z,9.57
2019-01-16T14:18:14.941Z,8.10
2019-01-16T14:21:12.486Z,6.97
2019-01-16T14:24:01.456Z,7.73
2019-01-16T14:26:53.017Z,10.27
2019-01-16T14:29:42.413Z,6.90
2019-01-16T14:32:31.437Z,8.73
2019-01-16T14:35:28.931Z,7.97
2019-01-16T14:38:20.597Z,7.40
2019-01-16T14:41:27.024Z,8.27
2019-01-16T14:44:18.801Z,9.70
2019-01-16T14:47:13.377Z,7.40
2019-01-16T14:50:08.108Z,5.70
2019-01-16T14:53:13.007Z,7.70
2019-01-16T14:56:07.649Z,10.07
2019-01-16T14:58:56.248Z,10.20
2019-01-16T15:01:47.593Z,9.43
2019-01-16T15:04:39.972Z,8.57
2019-01-16T15:07:38.261Z,6.80
2019-01-16T15:10:36.139Z,9.60
2019-01-16T15:13:25.262Z,10.30
2019-01-16T15:16:20.198Z,9.63
2019-01-16T15:19:20.577Z,8.50
2019-01-16T15:22:14.838Z,11.13
2019-01-16T15:25:09.332Z,10.17
2019-01-16T15:27:57.754Z,6.80
2019-01-16T15:31:01.659Z,5.20
2019-01-16T15:33:50.712Z,8.53
2019-01-16T15:36:39.762Z,5.80
2019-01-16T15:39:44.419Z,5.93
2019-01-16T15:42:48.835Z,7.77
2019-01-16T15:45:49.391Z,5.87
2019-01-16T15:48:41.002Z,8.57
2019-01-16T15:51:45.696Z,8.67
2019-01-16T15:54:40.471Z,8.60
2019-01-16T15:57:29.373Z,7.40
2019-01-16T16:00:18.822Z,7.00
2019-01-16T16:03:10.134Z,7.67
2019-01-16T16:05:58.990Z,8.60
2019-01-16T16:08:50.380Z,8.50
2019-01-16T16:11:44.730Z,6.87
2019-01-16T16:14:39.150Z,8.43
2019-01-16T16:17:28.000Z,9.17
2019-01-16T16:20:26.030Z,7.33
2019-01-16T16:23:14.770Z,8.27
2019-01-16T16:26:15.838Z,7.90
2019-01-16T16:29:04.492Z,7.20
2019-01-16T16:31:53.120Z,7.03
2019-01-16T16:34:47.267Z,7.13
2019-01-16T16:37:52.088Z,7.87
2019-01-16T16:40:41.019Z,9.40
2019-01-16T16:43:45.761Z,7.60
2019-01-16T16:46:38.675Z,9.20
2019-01-16T16:49:45.278Z,7.20
2019-01-16T16:52:36.684Z,6.90
2019-01-16T16:55:25.348Z,7.13
2019-01-16T16:58:32.173Z,15.07
2019-01-16T17:01:26.826Z,8.83
2019-01-16T17:04:15.789Z,10.60
2019-01-16T17:07:20.493Z,11.50
2019-01-16T17:10:15.347Z,10.30
2019-01-16T17:13:04.140Z,10.87
2019-01-16T17:16:01.724Z,10.93
2019-01-16T17:18:50.198Z,6.70
2019-01-16T17:21:41.942Z,5.60
2019-01-16T17:24:33.396Z,8.00
2019-01-16T17:27:38.397Z,9.73
2019-01-16T17:30:42.131Z,7.07
2019-01-16T17:33:30.882Z,8.17
2019-01-16T17:36:19.569Z,8.63
2019-01-16T17:39:15.376Z,8.73
2019-01-16T17:42:04.113Z,7.83
2019-01-16T17:44:53.129Z,5.80
2019-01-16T17:47:41.728Z,6.60
2019-01-16T17:50:48.510Z,6.53
2019-01-16T17:53:48.949Z,7.70
2019-01-16T17:56:58.493Z,6.60
2019-01-16T18:00:05.289Z,6.20
2019-01-16T18:02:54.004Z,8.03
2019-01-16T18:05:59.026Z,7.93
2019-01-16T18:08:50.612Z,6.77
2019-01-16T18:11:57.872Z,7.97
2019-01-16T18:15:04.227Z,7.30
2019-01-16T18:18:11.055Z,6.23
2019-01-16T18:20:59.968Z,7.40
2019-01-16T18:24:07.272Z,6.13
2019-01-16T18:26:55.814Z,8.93
2019-01-16T18:29:50.303Z,6.43
2019-01-16T18:32:39.297Z,7.07
2019-01-16T18:35:40.242Z,7.97
2019-01-16T18:38:29.480Z,7.23
2019-01-16T18:41:36.502Z,7.77
2019-01-16T18:44:37.247Z,6.13
2019-01-16T18:47:28.808Z,9.90
2019-01-16T18:50:20.459Z,6.60
2019-01-16T18:53:18.672Z,7.87
2019-01-16T18:56:13.003Z,10.17
2019-01-16T18:59:10.972Z,7.80
2019-01-16T19:02:00.286Z,9.73
2019-01-16T19:04:49.042Z,6.60
2019-01-16T19:07:54.096Z,7.20
2019-01-16T19:10:42.862Z,5.13
2019-01-16T19:13:40.222Z,9.10
2019-01-16T19:16:38.196Z,6.60
2019-01-16T19:19:27.461Z,6.77
2019-01-16T19:22:16.321Z,7.70
2019-01-16T19:25:20.945Z,7.27
2019-01-16T19:28:12.527Z,7.80
2019-01-16T19:31:03.777Z,8.83
2019-01-16T19:33:55.225Z,8.23
2019-01-16T19:36:44.428Z,5.97
2019-01-16T19:39:36.603Z,7.97
2019-01-16T19:42:25.708Z,6.87
2019-01-16T19:45:20.336Z,7.90
2019-01-16T19:48:14.656Z,7.57
2019-01-16T19:51:03.394Z,8.80
2019-01-16T19:53:55.412Z,6.80
2019-01-16T19:56:53.493Z,6.97
2019-01-16T19:59:45.140Z,6.97
2019-01-16T20:02:33.960Z,9.40
2019-01-16T20:05:28.919Z,9.53
2019-01-16T20:08:17.783Z,10.43
2019-01-16T20:11:12.779Z,8.67
2019-01-16T20:14:01.497Z,6.83
2019-01-16T20:17:02.416Z,9.50
2019-01-16T20:19:53.956Z,8.20
2019-01-16T20:22:51.548Z,6.97
2019-01-16T20:25:56.333Z,7.77
2019-01-16T20:28:47.844Z,7.73
2019-01-16T20:31:42.551Z,10.13
2019-01-16T20:34:34.244Z,7.57
2019-01-16T20:37:25.783Z,7.87
2019-01-16T20:40:15.189Z,10.00
2019-01-16T20:43:12.445Z,9.80
2019-01-16T20:46:04.138Z,8.67
2019-01-16T20:49:11.082Z,6.60
2019-01-16T20:52:11.840Z,8.93
2019-01-16T20:55:09.446Z,8.53
2019-01-16T20:58:14.588Z,8.60
2019-01-16T21:01:09.066Z,10.17
2019-01-16T21:04:15.965Z,8.33
2019-01-16T21:07:13.550Z,7.43
2019-01-16T21:10:05.431Z,10.13
2019-01-16T21:13:00.212Z,7.83
2019-01-16T21:15:51.988Z,7.30
2019-01-16T21:18:55.244Z,11.57
2019-01-16T21:21:44.172Z,8.13
2019-01-16T21:24:48.570Z,8.10
2019-01-16T21:27:37.395Z,6.93
2019-01-16T21:30:41.182Z,7.53
2019-01-16T21:33:30.047Z,5.83
2019-01-16T21:36:36.985Z,6.20
2019-01-16T21:39:43.829Z,7.57
2019-01-16T21:42:32.579Z,7.43
2019-01-16T21:45:26.874Z,8.93
2019-01-16T21:48:21.745Z,7.17
2019-01-16T21:51:10.305Z,6.43
2019-01-16T21:54:13.769Z,8.10
2019-01-16T21:57:18.663Z,8.23
2019-01-16T22:00:34.281Z,7.87
2019-01-16T22:03:26.001Z,7.10
2019-01-16T22:06:17.629Z,6.40
2019-01-16T22:09:15.010Z,7.97
2019-01-16T22:12:08.483Z,6.90
2019-01-16T22:14:59.973Z,7.30
2019-01-16T22:17:51.835Z,7.13
2019-01-16T22:20:40.845Z,7.00
2019-01-16T22:23:38.280Z,8.27
2019-01-16T22:26:41.765Z,6.43
2019-01-16T22:29:46.242Z,10.67
2019-01-16T22:32:35.144Z,7.83
2019-01-16T22:35:40.217Z,8.03
2019-01-16T22:38:40.857Z,6.70
2019-01-16T22:41:35.990Z,9.13
2019-01-16T22:44:36.566Z,9.93
2019-01-16T22:47:40.194Z,8.50
2019-01-16T22:50:35.342Z,7.53
2019-01-16T22:53:43.414Z,8.70
2019-01-16T22:56:32.665Z,8.60
2019-01-16T22:59:30.249Z,12.77
2019-01-16T23:02:35.081Z,7.53
2019-01-16T23:05:24.051Z,8.10
2019-01-16T23:08:28.121Z,8.47
2019-01-16T23:11:33.235Z,7.57
2019-01-16T23:14:38.104Z,8.03
2019-01-16T23:17:35.665Z,10.10
2019-01-16T23:20:27.088Z,8.33
2019-01-16T23:23:17.128Z,8.20
2019-01-16T23:26:21.840Z,8.53
2019-01-16T23:29:20.401Z,11.23
2019-01-16T23:32:09.248Z,9.47
2019-01-16T23:34:58.123Z,9.27
2019-01-16T23:37:46.969Z,8.43
2019-01-16T23:40:35.992Z,8.10
2019-01-16T23:43:24.955Z,8.50
2019-01-16T23:46:32.163Z,10.70
2019-01-16T23:49:27.167Z,8.70
2019-01-16T23:52:15.724Z,7.07
2019-01-16T23:55:19.827Z,10.17
2019-01-16T23:58:11.377Z,9.57
